• Join FlightAware (Why Join?)
  • Login
  • US Flag 
09:23PM EST


 

Airport Tracker/Info


-or-


 

Live Flight TrackerFlight Track Log ✈ UAL4625 ✈ 25-Jul-2013 ✈ KRAP - KORD

Flight Track Log - Related Links

Times and Time Zones

All times are in EDT time to prevent confusion due to time zone crossing. See the UAL4625 flight status page for this flight to view local times or setup timezone preferences in your user account.

Time Position Orientation Groundspeed Altitude Reporting Facility
EDT Latitude Longitude Course Direction KTS MPH feet Rate Location/Type
01:34PM 44.0939 -103.0664 North 198 228 5,100  Level Denver Center
01:35PM 44.0889 -102.9761 94° East 265 305 7,000 2,040 Climbing Denver Center
01:36PM 44.0642 -102.8800 110° East 286 329 9,300 2,040 Climbing Denver Center
01:37PM 44.0922 -102.4597 84° East  Level FlightAware Approximate
01:37PM 44.0381 -102.7636 107° East 312 359 11,200  Level Denver Center
01:38PM 44.1055 -102.3117 79° East  Level FlightAware Approximate
01:38PM 44.0161 -102.6878 112° Southeast 310 357 13,200  Level Denver Center
01:39PM 44.1205 -102.1641 84° East  Level FlightAware Approximate
01:39PM 44.0128 -102.5636 92° East 321 369 15,200  Level Denver Center
01:40PM 44.0283 -102.4403 80° East 324 373 16,600 1,200 Climbing Denver Center
01:41PM 44.0444 -102.3053 81° East 339 390 17,700 1,020 Climbing Denver Center
01:42PM 44.0586 -102.1622 82° East 357 411 18,800 840 Climbing Denver Center
01:43PM 44.0731 -102.0064 83° East 381 438 19,500 840 Climbing Denver Center
01:44PM 44.0914 -101.8089 83° East 410 472 20,600 1,020 Climbing Denver Center
01:45PM 44.1064 -101.6425 83° East 424 488 21,700 1,080 Climbing Denver Center
01:46PM 44.1233 -101.4775 82° East 430 495 22,900 1,080 Climbing Denver Center
01:47PM 44.1389 -101.3092 83° East 434 499 24,000 780 Climbing Denver Center
01:48PM 44.1069 -101.1419 105° East 450 518 24,600 600 Climbing Denver Center
01:50PM 44.0700 -100.9717 107° East 459 528 25,300 720 Climbing Denver Center
01:51PM 44.0292 -100.7622 105° East 465 535 26,100 660 Climbing Denver Center
01:52PM 43.9983 -100.5869 104° East 468 539 26,700 600 Climbing Denver Center
01:53PM 43.9494 -100.3367 105° East 479 551 27,700 660 Climbing Minneapolis Center
01:54PM 43.9089 -100.1211 105° East 483 556 28,400 600 Climbing Minneapolis Center
01:55PM 43.8753 -99.9419 105° East 483 556 29,100 600 Climbing Minneapolis Center
01:56PM 43.8319 -99.7253 105° East 487 560 29,800 660 Climbing Minneapolis Center
01:57PM 43.7953 -99.5433 106° East 490 564 30,500 660 Climbing Minneapolis Center
01:58PM 43.7583 -99.3583 105° East 497 572 31,200 660 Climbing Minneapolis Center
02:00PM 43.7136 -99.1367 106° East 501 577 31,900 660 Climbing Minneapolis Center
02:01PM 43.6753 -98.9506 106° East 504 580 32,600 600 Climbing Minneapolis Center
02:02PM 43.6386 -98.7650 105° East 504 580 33,200 600 Climbing Minneapolis Center
02:03PM 43.6014 -98.5867 106° East 508 585 33,900 660 Climbing Minneapolis Center
02:04PM 43.5547 -98.3633 106° East 508 585 34,600 480 Climbing Minneapolis Center
02:05PM 43.5144 -98.1764 106° East 509 586 35,000 180 Climbing Minneapolis Center
02:06PM 43.4747 -97.9878 106° East 514 592 35,000 240 Level Minneapolis Center
02:07PM 43.4336 -97.7986 107° East 518 596 35,600 600 Climbing Minneapolis Center
02:08PM 43.3853 -97.5761 107° East 513 590 36,500 660 Climbing Minneapolis Center
02:09PM 43.3369 -97.3564 107° East 507 583 37,000 240 Climbing Minneapolis Center
02:10PM 43.2958 -97.1692 107° East 513 590 37,000  Level Minneapolis Center
02:11PM 43.2611 -97.0186 108° East 517 595 37,000  Level Minneapolis Center
02:12PM 43.2108 -96.7919 107° East 521 600 37,000  Level Minneapolis Center
02:13PM 43.1594 -96.5667 107° East 520 598 37,000  Level Minneapolis Center
02:14PM 43.1161 -96.3808 108° East 518 596 37,000  Level Minneapolis Center
02:15PM 43.0650 -96.1581 107° East 516 594 37,000  Level Minneapolis Center
02:17PM 43.0208 -95.9728 108° East 516 594 37,000  Level Minneapolis Center
02:18PM 42.9775 -95.7858 108° East 519 597 37,000  Level Minneapolis Center
02:19PM 42.9325 -95.5994 108° East 521 600 37,000  Level Minneapolis Center
02:20PM 42.8792 -95.3789 108° East 514 592 37,000  Level Minneapolis Center
02:21PM 42.8344 -95.1950 108° East 516 594 37,000  Level Minneapolis Center
02:22PM 42.7894 -95.0106 108° East 516 594 37,000  Level Minneapolis Center
02:23PM 42.7442 -94.8261 108° East 515 593 37,000  Level Minneapolis Center
02:24PM 42.6928 -94.6186 109° East 517 595 37,000  Level Minneapolis Center
02:25PM 42.6511 -94.4556 109° East 523 602 37,000  Level Minneapolis Center
02:26PM 42.6069 -94.2331 105° East 515 593 37,000  Level Minneapolis Center
02:27PM 42.6028 -94.0419 92° East 512 589 37,000  Level Minneapolis Center
02:28PM 42.5958 -93.8503 93° East 514 592 37,000  Level Minneapolis Center
02:29PM 42.5897 -93.6583 92° East 513 590 37,000  Level Minneapolis Center
02:30PM 42.5831 -93.4681 93° East 512 589 37,000  Level Minneapolis Center
02:31PM 42.5739 -93.2008 93° East 511 588 37,000  Level Minneapolis Center
02:32PM 42.5664 -93.0114 93° East 510 587 37,000  Level Minneapolis Center
02:33PM 42.5581 -92.8211 93° East 511 588 37,000  Level Minneapolis Center
02:34PM 42.5475 -92.5914 93° East 513 590 37,000  Level Chicago Center
02:35PM 42.5392 -92.4025 93° East 508 585 37,000 -360 Level Chicago Center
02:36PM 42.5311 -92.2133 93° East 510 587 36,300 -780 Descending Chicago Center
02:37PM 42.5236 -92.0250 93° East 509 586 35,500 -780 Descending Chicago Center
02:39PM 42.5250 -91.7994 89° East 508 585 34,700 -780 Descending Chicago Center
02:40PM 42.5258 -91.6114 90° East 511 588 34,000 -720 Descending Chicago Center
02:41PM 42.5275 -91.4219 89° East 516 594 33,200 -780 Descending Chicago Center
02:42PM 42.5261 -91.1917 90° East 519 597 32,400 -780 Descending Chicago Center
02:43PM 42.5258 -90.9958 90° East 526 605 31,700 -480 Descending Chicago Center
02:44PM 42.5258 -90.7989 90° East 528 608 31,400 -300 Descending Chicago Center
02:45PM 42.5244 -90.6033 90° East 526 605 31,100 -300 Descending Chicago Center
02:46PM 42.5214 -90.4083 91° East 527 606 30,900 -900 Descending Chicago Center
02:47PM 42.5214 -90.1769 90° East 518 596 29,300 -1,920 Descending Chicago Center
02:48PM 42.5189 -89.9925 91° East 498 573 27,000 -2,460 Descending Chicago Center
02:49PM 42.5175 -89.7956 90° East 486 559 24,300 -2,580 Descending Chicago Center
02:50PM 42.5156 -89.6178 91° East 475 547 21,800 -2,280 Descending Chicago Center
02:51PM 42.5119 -89.4439 92° East 464 534 19,600 -2,040 Descending Chicago Center
02:52PM 42.5094 -89.2786 91° East 444 511 17,700 -1,920 Descending Chicago Center
02:53PM 42.5081 -89.0933 91° East 424 488 15,600 -1,560 Descending Chicago Center
02:54PM 42.5036 -88.9419 92° East 406 467 14,500 -780 Descending Chicago Center
02:55PM 42.4664 -88.8000 110° East 402 463 14,000 -1,440 Descending Chicago Center
02:56PM 42.4247 -88.6617 112° Southeast 398 458 11,600 -1,920 Descending Chicago Center
02:57PM 42.3839 -88.5289 113° Southeast 387 445 10,100 -780 Descending Chicago Center
02:58PM 42.3361 -88.3786 113° Southeast 376 433 10,000 -60 Descending Chicago Center
02:59PM 42.2683 -88.2694 130° Southeast 382 440 10,000 -60 Level Chicago Center
03:00PM 42.2111 -88.1722 128° Southeast 335 386 9,900 -540 Descending Chicago Center
03:01PM 42.1489 -88.0942 137° Southeast 309 356 9,000 -840 Descending Chicago Center
03:02PM 42.0967 -88.0131 131° Southeast 293 337 8,200 -900 Descending Chicago Center
03:03PM 42.0914 -87.8842 93° East 284 327 7,200 -1,140 Descending Chicago Center
03:04PM 42.0908 -87.7983 90° East 242 278 5,900 -1,380 Descending Chicago Center
03:05PM 42.0906 -87.7167 90° East 225 259 4,400 -960 Descending Chicago Center
03:06PM 42.0508 -87.6850 149° Southeast 210 242 4,000 -660 Descending Chicago Center
03:08PM 42.0108 -87.7222 215° Southwest 198 228 3,100 -900 Descending Chicago Center